sensor_id;sensor_type;location;lat;lon;timestamp;pressure;altitude;pressure_sealevel;temperature;humidity
13800;BME280;6971;50.028;9.258;2024-02-14T00:04:17;99776.91;;;0.30;100.00
13800;BME280;6971;50.028;9.258;2024-02-14T00:09:17;99767.34;;;0.40;100.00
13800;BME280;6971;50.028;9.258;2024-02-14T00:14:17;99774.97;;;0.57;100.00
13800;BME280;6971;50.028;9.258;2024-02-14T00:19:20;99775.84;;;0.59;100.00
13800;BME280;6971;50.028;9.258;2024-02-14T00:24:20;99784.38;;;0.72;100.00
13800;BME280;6971;50.028;9.258;2024-02-14T00:29:22;99785.25;;;0.76;100.00
13800;BME280;6971;50.028;9.258;2024-02-14T00:34:24;99779.13;;;0.83;100.00
13800;BME280;6971;50.028;9.258;2024-02-14T00:39:24;99784.13;;;1.05;100.00
13800;BME280;6971;50.028;9.258;2024-02-14T00:44:24;99778.09;;;1.04;100.00
13800;BME280;6971;50.028;9.258;2024-02-14T00:49:25;99775.41;;;1.11;100.00
13800;BME280;6971;50.028;9.258;2024-02-14T00:54:26;99776.13;;;1.27;100.00
13800;BME280;6971;50.028;9.258;2024-02-14T00:59:27;99776.09;;;1.32;100.00
13800;BME280;6971;50.028;9.258;2024-02-14T01:04:46;99782.94;;;1.39;100.00
13800;BME280;6971;50.028;9.258;2024-02-14T01:09:47;99786.31;;;1.47;100.00
13800;BME280;6971;50.028;9.258;2024-02-14T01:14:47;99772.28;;;1.62;100.00
13800;BME280;6971;50.028;9.258;2024-02-14T01:19:47;99774.78;;;1.68;100.00
13800;BME280;6971;50.028;9.258;2024-02-14T01:24:48;99773.06;;;1.71;100.00
13800;BME280;6971;50.028;9.258;2024-02-14T01:29:49;99772.91;;;1.83;100.00
13800;BME280;6971;50.028;9.258;2024-02-14T01:34:49;99757.31;;;1.83;100.00
13800;BME280;6971;50.028;9.258;2024-02-14T01:39:49;99749.38;;;1.94;100.00
13800;BME280;6971;50.028;9.258;2024-02-14T01:44:50;99751.97;;;1.95;100.00
13800;BME280;6971;50.028;9.258;2024-02-14T01:49:50;99751.03;;;2.00;100.00
13800;BME280;6971;50.028;9.258;2024-02-14T01:54:51;99737.06;;;2.05;100.00
13800;BME280;6971;50.028;9.258;2024-02-14T01:59:56;99744.78;;;2.13;100.00
13800;BME280;6971;50.028;9.258;2024-02-14T02:04:57;99730.72;;;2.27;100.00
13800;BME280;6971;50.028;9.258;2024-02-14T02:09:58;99741.91;;;2.33;100.00
13800;BME280;6971;50.028;9.258;2024-02-14T02:14:58;99732.34;;;2.34;100.00
13800;BME280;6971;50.028;9.258;2024-02-14T02:19:58;99720.16;;;2.38;100.00
13800;BME280;6971;50.028;9.258;2024-02-14T02:24:59;99720.00;;;2.48;100.00
13800;BME280;6971;50.028;9.258;2024-02-14T02:29:59;99711.13;;;2.59;100.00
13800;BME280;6971;50.028;9.258;2024-02-14T02:35:00;99707.00;;;2.47;100.00
13800;BME280;6971;50.028;9.258;2024-02-14T02:40:01;99710.34;;;2.55;100.00
13800;BME280;6971;50.028;9.258;2024-02-14T02:45:02;99698.09;;;2.62;100.00
13800;BME280;6971;50.028;9.258;2024-02-14T02:50:06;99688.34;;;2.72;100.00
13800;BME280;6971;50.028;9.258;2024-02-14T02:55:08;99694.56;;;2.66;100.00
13800;BME280;6971;50.028;9.258;2024-02-14T03:00:08;99693.69;;;2.64;100.00
13800;BME280;6971;50.028;9.258;2024-02-14T03:05:09;99690.22;;;2.65;100.00
13800;BME280;6971;50.028;9.258;2024-02-14T03:10:11;99692.78;;;2.67;100.00
13800;BME280;6971;50.028;9.258;2024-02-14T03:15:14;99702.34;;;2.66;100.00
13800;BME280;6971;50.028;9.258;2024-02-14T03:20:15;99711.88;;;2.67;100.00
13800;BME280;6971;50.028;9.258;2024-02-14T03:25:19;99716.22;;;2.67;100.00
13800;BME280;6971;50.028;9.258;2024-02-14T03:30:20;99723.88;;;2.74;100.00
13800;BME280;6971;50.028;9.258;2024-02-14T03:35:20;99728.09;;;2.83;100.00
13800;BME280;6971;50.028;9.258;2024-02-14T03:40:22;99727.16;;;2.87;100.00
13800;BME280;6971;50.028;9.258;2024-02-14T03:45:22;99722.69;;;2.94;100.00
13800;BME280;6971;50.028;9.258;2024-02-14T03:50:23;99728.72;;;2.96;100.00
13800;BME280;6971;50.028;9.258;2024-02-14T03:55:23;99734.78;;;2.98;100.00
13800;BME280;6971;50.028;9.258;2024-02-14T04:00:24;99723.31;;;3.07;100.00
13800;BME280;6971;50.028;9.258;2024-02-14T04:05:27;99710.25;;;3.10;100.00
13800;BME280;6971;50.028;9.258;2024-02-14T04:10:28;99718.97;;;3.08;100.00
13800;BME280;6971;50.028;9.258;2024-02-14T04:15:28;99724.91;;;3.16;100.00
13800;BME280;6971;50.028;9.258;2024-02-14T04:20:29;99733.47;;;3.23;100.00
13800;BME280;6971;50.028;9.258;2024-02-14T04:25:29;99727.41;;;3.21;100.00
13800;BME280;6971;50.028;9.258;2024-02-14T04:30:29;99722.13;;;3.25;100.00
13800;BME280;6971;50.028;9.258;2024-02-14T04:35:30;99725.63;;;3.24;100.00
13800;BME280;6971;50.028;9.258;2024-02-14T04:40:30;99726.41;;;3.28;100.00
13800;BME280;6971;50.028;9.258;2024-02-14T04:45:30;99729.75;;;3.35;100.00
13800;BME280;6971;50.028;9.258;2024-02-14T04:50:31;99728.66;;;3.47;100.00
13800;BME280;6971;50.028;9.258;2024-02-14T04:55:31;99720.78;;;3.50;100.00
13800;BME280;6971;50.028;9.258;2024-02-14T05:00:32;99716.41;;;3.50;100.00
13800;BME280;6971;50.028;9.258;2024-02-14T05:05:32;99717.25;;;3.52;100.00
13800;BME280;6971;50.028;9.258;2024-02-14T05:10:33;99724.88;;;3.62;100.00
13800;BME280;6971;50.028;9.258;2024-02-14T05:15:34;99726.63;;;3.61;100.00
13800;BME280;6971;50.028;9.258;2024-02-14T05:20:35;99718.72;;;3.66;100.00
13800;BME280;6971;50.028;9.258;2024-02-14T05:25:35;99718.66;;;3.69;100.00
13800;BME280;6971;50.028;9.258;2024-02-14T05:30:36;99703.44;;;3.90;100.00
13800;BME280;6971;50.028;9.258;2024-02-14T05:35:36;99706.59;;;4.04;100.00
13800;BME280;6971;50.028;9.258;2024-02-14T05:40:36;99703.00;;;4.48;100.00
13800;BME280;6971;50.028;9.258;2024-02-14T05:45:38;99714.38;;;4.80;100.00
13800;BME280;6971;50.028;9.258;2024-02-14T05:50:38;99703.38;;;5.02;100.00
13800;BME280;6971;50.028;9.258;2024-02-14T05:55:39;99701.91;;;5.23;100.00
13800;BME280;6971;50.028;9.258;2024-02-14T06:00:39;99720.13;;;5.58;100.00
13800;BME280;6971;50.028;9.258;2024-02-14T06:05:39;99719.25;;;5.59;100.00
13800;BME280;6971;50.028;9.258;2024-02-14T06:10:40;99715.78;;;5.57;100.00
13800;BME280;6971;50.028;9.258;2024-02-14T06:15:40;99720.00;;;5.63;100.00
13800;BME280;6971;50.028;9.258;2024-02-14T06:20:41;99726.16;;;5.60;100.00
13800;BME280;6971;50.028;9.258;2024-02-14T06:25:41;99734.75;;;5.66;100.00
13800;BME280;6971;50.028;9.258;2024-02-14T06:30:42;99738.09;;;5.69;100.00
13800;BME280;6971;50.028;9.258;2024-02-14T06:35:42;99742.22;;;5.78;100.00
13800;BME280;6971;50.028;9.258;2024-02-14T06:40:43;99743.25;;;5.72;100.00
13800;BME280;6971;50.028;9.258;2024-02-14T06:45:44;99756.97;;;5.81;100.00
13800;BME280;6971;50.028;9.258;2024-02-14T06:50:44;99766.56;;;5.80;100.00
13800;BME280;6971;50.028;9.258;2024-02-14T06:55:44;99772.72;;;5.79;100.00
13800;BME280;6971;50.028;9.258;2024-02-14T07:00:45;99777.06;;;5.79;100.00
13800;BME280;6971;50.028;9.258;2024-02-14T07:05:45;99782.78;;;5.61;100.00
13800;BME280;6971;50.028;9.258;2024-02-14T07:10:45;99789.03;;;5.56;100.00
13800;BME280;6971;50.028;9.258;2024-02-14T07:15:46;99799.00;;;5.43;100.00
13800;BME280;6971;50.028;9.258;2024-02-14T07:20:46;99800.22;;;5.29;100.00
13800;BME280;6971;50.028;9.258;2024-02-14T07:25:47;99803.31;;;5.11;100.00
13800;BME280;6971;50.028;9.258;2024-02-14T07:30:47;99796.25;;;5.14;100.00
13800;BME280;6971;50.028;9.258;2024-02-14T07:35:47;99790.25;;;5.11;100.00
13800;BME280;6971;50.028;9.258;2024-02-14T07:40:48;99790.88;;;5.19;100.00
13800;BME280;6971;50.028;9.258;2024-02-14T07:45:48;99797.81;;;5.21;100.00
13800;BME280;6971;50.028;9.258;2024-02-14T07:50:49;99792.31;;;5.32;100.00
13800;BME280;6971;50.028;9.258;2024-02-14T07:55:49;99801.59;;;5.43;100.00
13800;BME280;6971;50.028;9.258;2024-02-14T08:00:49;99795.50;;;5.42;100.00
13800;BME280;6971;50.028;9.258;2024-02-14T08:05:50;99798.16;;;5.41;100.00
13800;BME280;6971;50.028;9.258;2024-02-14T08:10:51;99795.41;;;5.47;100.00
13800;BME280;6971;50.028;9.258;2024-02-14T08:15:51;99800.84;;;5.71;100.00
13800;BME280;6971;50.028;9.258;2024-02-14T08:20:53;99806.97;;;5.70;100.00
13800;BME280;6971;50.028;9.258;2024-02-14T08:25:53;99806.09;;;5.69;100.00
13800;BME280;6971;50.028;9.258;2024-02-14T08:30:53;99812.59;;;5.87;100.00
13800;BME280;6971;50.028;9.258;2024-02-14T08:35:54;99812.41;;;5.94;100.00
13800;BME280;6971;50.028;9.258;2024-02-14T08:40:57;99814.34;;;5.87;100.00
13800;BME280;6971;50.028;9.258;2024-02-14T08:45:58;99819.56;;;5.87;100.00
13800;BME280;6971;50.028;9.258;2024-02-14T08:50:58;99829.09;;;5.90;100.00
13800;BME280;6971;50.028;9.258;2024-02-14T08:55:59;99819.59;;;6.19;100.00
13800;BME280;6971;50.028;9.258;2024-02-14T09:00:59;99814.03;;;6.30;100.00
13800;BME280;6971;50.028;9.258;2024-02-14T09:05:59;99819.09;;;6.34;100.00
13800;BME280;6971;50.028;9.258;2024-02-14T09:11:00;99817.00;;;6.47;100.00
13800;BME280;6971;50.028;9.258;2024-02-14T09:16:01;99810.91;;;6.74;100.00
13800;BME280;6971;50.028;9.258;2024-02-14T09:21:01;99820.34;;;6.79;100.00
13800;BME280;6971;50.028;9.258;2024-02-14T09:26:05;99814.38;;;6.76;100.00
13800;BME280;6971;50.028;9.258;2024-02-14T09:31:06;99816.91;;;6.79;100.00
13800;BME280;6971;50.028;9.258;2024-02-14T09:36:06;99827.38;;;6.79;100.00
13800;BME280;6971;50.028;9.258;2024-02-14T09:41:37;99824.34;;;6.91;100.00
13800;BME280;6971;50.028;9.258;2024-02-14T09:46:41;99822.44;;;6.97;100.00
13800;BME280;6971;50.028;9.258;2024-02-14T09:51:44;99826.66;;;7.01;100.00
13800;BME280;6971;50.028;9.258;2024-02-14T09:56:50;99839.63;;;7.05;100.00
13800;BME280;6971;50.028;9.258;2024-02-14T10:01:55;99840.47;;;7.06;100.00
13800;BME280;6971;50.028;9.258;2024-02-14T10:06:55;99850.06;;;7.07;100.00
13800;BME280;6971;50.028;9.258;2024-02-14T10:11:56;99858.97;;;7.01;100.00
13800;BME280;6971;50.028;9.258;2024-02-14T10:16:57;99852.72;;;7.05;100.00
13800;BME280;6971;50.028;9.258;2024-02-14T10:21:58;99852.69;;;7.07;100.00
13800;BME280;6971;50.028;9.258;2024-02-14T10:27:00;99856.81;;;7.14;100.00
13800;BME280;6971;50.028;9.258;2024-02-14T10:32:00;99857.16;;;7.30;100.00
13800;BME280;6971;50.028;9.258;2024-02-14T10:37:01;99849.34;;;7.29;100.00
13800;BME280;6971;50.028;9.258;2024-02-14T10:42:02;99854.19;;;7.41;100.00
13800;BME280;6971;50.028;9.258;2024-02-14T10:47:05;99852.34;;;7.43;100.00
13800;BME280;6971;50.028;9.258;2024-02-14T10:52:07;99858.41;;;7.46;100.00
13800;BME280;6971;50.028;9.258;2024-02-14T10:57:09;99868.13;;;7.67;100.00
13800;BME280;6971;50.028;9.258;2024-02-14T11:02:13;99866.78;;;7.55;100.00
13800;BME280;6971;50.028;9.258;2024-02-14T11:07:16;99864.72;;;7.65;100.00
13800;BME280;6971;50.028;9.258;2024-02-14T11:12:22;99860.59;;;7.58;100.00
13800;BME280;6971;50.028;9.258;2024-02-14T11:17:24;99863.94;;;7.63;100.00
13800;BME280;6971;50.028;9.258;2024-02-14T11:22:34;99855.84;;;7.69;100.00
13800;BME280;6971;50.028;9.258;2024-02-14T11:27:34;99860.38;;;7.64;100.00
13800;BME280;6971;50.028;9.258;2024-02-14T11:32:36;99875.84;;;7.72;100.00
13800;BME280;6971;50.028;9.258;2024-02-14T11:37:39;99869.72;;;7.71;100.00
13800;BME280;6971;50.028;9.258;2024-02-14T11:42:39;99870.88;;;7.64;100.00
13800;BME280;6971;50.028;9.258;2024-02-14T11:47:41;99853.91;;;7.75;100.00
13800;BME280;6971;50.028;9.258;2024-02-14T11:52:42;99850.53;;;7.71;100.00
13800;BME280;6971;50.028;9.258;2024-02-14T11:57:42;99839.53;;;7.85;100.00
13800;BME280;6971;50.028;9.258;2024-02-14T12:02:42;99832.53;;;7.60;100.00
13800;BME280;6971;50.028;9.258;2024-02-14T12:07:43;99845.44;;;7.66;100.00
13800;BME280;6971;50.028;9.258;2024-02-14T12:12:47;99859.16;;;7.75;100.00
13800;BME280;6971;50.028;9.258;2024-02-14T12:17:47;99862.59;;;7.77;100.00
13800;BME280;6971;50.028;9.258;2024-02-14T12:22:52;99852.97;;;7.76;100.00
13800;BME280;6971;50.028;9.258;2024-02-14T12:27:53;99853.56;;;7.84;100.00
13800;BME280;6971;50.028;9.258;2024-02-14T12:32:59;99844.00;;;7.83;100.00
13800;BME280;6971;50.028;9.258;2024-02-14T12:38:01;99842.72;;;7.93;100.00
13800;BME280;6971;50.028;9.258;2024-02-14T12:43:03;99845.59;;;7.87;100.00
13800;BME280;6971;50.028;9.258;2024-02-14T12:48:06;99846.75;;;8.04;100.00
13800;BME280;6971;50.028;9.258;2024-02-14T12:53:08;99856.91;;;8.13;100.00
13800;BME280;6971;50.028;9.258;2024-02-14T12:58:09;99849.38;;;8.04;100.00
13800;BME280;6971;50.028;9.258;2024-02-14T13:03:11;99851.75;;;8.10;100.00
13800;BME280;6971;50.028;9.258;2024-02-14T13:08:11;99846.50;;;8.10;100.00
13800;BME280;6971;50.028;9.258;2024-02-14T13:13:11;99846.09;;;8.21;100.00
13800;BME280;6971;50.028;9.258;2024-02-14T13:18:12;99846.41;;;8.13;100.00
13800;BME280;6971;50.028;9.258;2024-02-14T13:23:13;99837.16;;;8.27;100.00
13800;BME280;6971;50.028;9.258;2024-02-14T13:28:14;99847.09;;;8.18;100.00
13800;BME280;6971;50.028;9.258;2024-02-14T13:33:14;99834.88;;;8.17;100.00
13800;BME280;6971;50.028;9.258;2024-02-14T13:38:15;99825.22;;;8.18;100.00
13800;BME280;6971;50.028;9.258;2024-02-14T13:43:15;99828.31;;;8.29;100.00
13800;BME280;6971;50.028;9.258;2024-02-14T13:48:17;99818.81;;;8.25;100.00
13800;BME280;6971;50.028;9.258;2024-02-14T13:53:17;99823.91;;;8.30;100.00
13800;BME280;6971;50.028;9.258;2024-02-14T13:58:17;99829.22;;;8.28;100.00
13800;BME280;6971;50.028;9.258;2024-02-14T14:03:19;99812.34;;;8.34;100.00
13800;BME280;6971;50.028;9.258;2024-02-14T14:08:19;99817.06;;;8.26;100.00
13800;BME280;6971;50.028;9.258;2024-02-14T14:13:19;99813.31;;;8.31;100.00
13800;BME280;6971;50.028;9.258;2024-02-14T14:18:20;99817.50;;;8.37;100.00
13800;BME280;6971;50.028;9.258;2024-02-14T14:23:20;99812.13;;;8.40;100.00
13800;BME280;6971;50.028;9.258;2024-02-14T14:28:20;99810.78;;;8.52;100.00
13800;BME280;6971;50.028;9.258;2024-02-14T14:33:24;99811.63;;;8.54;100.00
13800;BME280;6971;50.028;9.258;2024-02-14T14:38:25;99818.72;;;8.51;100.00
13800;BME280;6971;50.028;9.258;2024-02-14T14:43:26;99805.66;;;8.49;100.00
13800;BME280;6971;50.028;9.258;2024-02-14T14:48:28;99814.31;;;8.53;100.00
13800;BME280;6971;50.028;9.258;2024-02-14T14:53:28;99804.38;;;8.61;100.00
13800;BME280;6971;50.028;9.258;2024-02-14T14:58:28;99806.63;;;8.70;100.00
13800;BME280;6971;50.028;9.258;2024-02-14T15:03:33;99820.78;;;8.66;100.00
13800;BME280;6971;50.028;9.258;2024-02-14T15:08:33;99827.09;;;8.62;100.00
13800;BME280;6971;50.028;9.258;2024-02-14T15:13:34;99815.81;;;8.58;100.00
13800;BME280;6971;50.028;9.258;2024-02-14T15:18:34;99812.25;;;8.61;100.00
13800;BME280;6971;50.028;9.258;2024-02-14T15:23:35;99809.84;;;8.55;100.00
13800;BME280;6971;50.028;9.258;2024-02-14T15:28:36;99804.63;;;8.53;100.00
13800;BME280;6971;50.028;9.258;2024-02-14T15:33:40;99804.59;;;8.55;100.00
13800;BME280;6971;50.028;9.258;2024-02-14T15:38:41;99810.84;;;8.51;100.00
13800;BME280;6971;50.028;9.258;2024-02-14T15:43:42;99810.84;;;8.51;100.00
13800;BME280;6971;50.028;9.258;2024-02-14T15:48:44;99811.53;;;8.56;100.00
13800;BME280;6971;50.028;9.258;2024-02-14T15:53:45;99814.31;;;8.53;100.00
13800;BME280;6971;50.028;9.258;2024-02-14T15:58:45;99803.16;;;8.46;100.00
13800;BME280;6971;50.028;9.258;2024-02-14T16:03:45;99802.66;;;8.36;100.00
13800;BME280;6971;50.028;9.258;2024-02-14T16:08:47;99805.84;;;8.20;100.00
13800;BME280;6971;50.028;9.258;2024-02-14T16:13:47;99806.47;;;8.05;100.00
13800;BME280;6971;50.028;9.258;2024-02-14T16:18:48;99807.72;;;7.94;100.00
13800;BME280;6971;50.028;9.258;2024-02-14T16:23:48;99806.28;;;7.86;100.00
13800;BME280;6971;50.028;9.258;2024-02-14T16:28:48;99808.16;;;7.82;100.00
13800;BME280;6971;50.028;9.258;2024-02-14T16:33:49;99811.81;;;7.78;100.00
13800;BME280;6971;50.028;9.258;2024-02-14T16:38:49;99800.72;;;7.69;100.00
13800;BME280;6971;50.028;9.258;2024-02-14T16:43:50;99803.06;;;7.77;100.00
13800;BME280;6971;50.028;9.258;2024-02-14T16:48:50;99809.53;;;7.68;100.00
13800;BME280;6971;50.028;9.258;2024-02-14T16:53:51;99808.59;;;7.69;100.00
13800;BME280;6971;50.028;9.258;2024-02-14T16:58:51;99825.59;;;7.59;100.00
13800;BME280;6971;50.028;9.258;2024-02-14T17:03:55;99829.28;;;7.53;100.00
13800;BME280;6971;50.028;9.258;2024-02-14T17:08:56;99828.38;;;7.54;100.00
13800;BME280;6971;50.028;9.258;2024-02-14T17:13:57;99825.84;;;7.51;100.00
13800;BME280;6971;50.028;9.258;2024-02-14T17:18:58;99828.91;;;7.39;100.00
13800;BME280;6971;50.028;9.258;2024-02-14T17:23:58;99832.59;;;7.33;100.00
13800;BME280;6971;50.028;9.258;2024-02-14T17:28:58;99840.25;;;7.39;100.00
13800;BME280;6971;50.028;9.258;2024-02-14T17:34:02;99841.53;;;7.27;100.00
13800;BME280;6971;50.028;9.258;2024-02-14T17:39:03;99840.47;;;7.33;100.00
13800;BME280;6971;50.028;9.258;2024-02-14T17:44:05;99839.53;;;7.34;100.00
13800;BME280;6971;50.028;9.258;2024-02-14T17:49:06;99850.25;;;7.28;100.00
13800;BME280;6971;50.028;9.258;2024-02-14T17:54:12;99845.81;;;7.30;100.00
13800;BME280;6971;50.028;9.258;2024-02-14T17:59:12;99856.28;;;7.30;100.00
13800;BME280;6971;50.028;9.258;2024-02-14T18:04:14;99856.25;;;7.31;100.00
13800;BME280;6971;50.028;9.258;2024-02-14T18:09:14;99854.59;;;7.29;100.00
13800;BME280;6971;50.028;9.258;2024-02-14T18:14:15;99852.88;;;7.28;100.00
13800;BME280;6971;50.028;9.258;2024-02-14T18:19:15;99858.22;;;7.25;100.00
13800;BME280;6971;50.028;9.258;2024-02-14T18:24:15;99858.00;;;7.31;100.00
13800;BME280;6971;50.028;9.258;2024-02-14T18:29:16;99866.34;;;7.17;100.00
13800;BME280;6971;50.028;9.258;2024-02-14T18:34:16;99859.19;;;7.22;100.00
13800;BME280;6971;50.028;9.258;2024-02-14T18:39:17;99854.91;;;7.20;100.00
13800;BME280;6971;50.028;9.258;2024-02-14T18:44:17;99858.31;;;7.22;100.00
13800;BME280;6971;50.028;9.258;2024-02-14T18:49:17;99848.53;;;7.27;100.00
13800;BME280;6971;50.028;9.258;2024-02-14T18:54:18;99848.56;;;7.25;100.00
13800;BME280;6971;50.028;9.258;2024-02-14T18:59:18;99843.28;;;7.27;100.00
13800;BME280;6971;50.028;9.258;2024-02-14T19:04:19;99846.22;;;7.17;100.00
13800;BME280;6971;50.028;9.258;2024-02-14T19:09:19;99839.03;;;7.23;100.00
13800;BME280;6971;50.028;9.258;2024-02-14T19:14:20;99838.94;;;7.26;100.00
13800;BME280;6971;50.028;9.258;2024-02-14T19:19:23;99848.75;;;7.21;100.00
13800;BME280;6971;50.028;9.258;2024-02-14T19:24:25;99839.97;;;7.22;100.00
13800;BME280;6971;50.028;9.258;2024-02-14T19:29:25;99851.34;;;7.21;100.00
13800;BME280;6971;50.028;9.258;2024-02-14T19:34:26;99848.38;;;7.31;100.00
13800;BME280;6971;50.028;9.258;2024-02-14T19:39:26;99852.63;;;7.36;100.00
13800;BME280;6971;50.028;9.258;2024-02-14T19:44:27;99844.09;;;7.29;100.00
13800;BME280;6971;50.028;9.258;2024-02-14T19:49:27;99839.66;;;7.31;100.00
13800;BME280;6971;50.028;9.258;2024-02-14T19:54:28;99843.13;;;7.31;100.00
13800;BME280;6971;50.028;9.258;2024-02-14T19:59:29;99844.00;;;7.32;100.00
13800;BME280;6971;50.028;9.258;2024-02-14T20:04:30;99842.31;;;7.29;100.00
13800;BME280;6971;50.028;9.258;2024-02-14T20:09:31;99837.94;;;7.30;100.00
13800;BME280;6971;50.028;9.258;2024-02-14T20:14:32;99846.63;;;7.32;100.00
13800;BME280;6971;50.028;9.258;2024-02-14T20:19:32;99847.38;;;7.36;100.00
13800;BME280;6971;50.028;9.258;2024-02-14T20:24:33;99841.25;;;7.35;100.00
13800;BME280;6971;50.028;9.258;2024-02-14T20:29:35;99847.31;;;7.37;100.00
13800;BME280;6971;50.028;9.258;2024-02-14T20:34:36;99853.56;;;7.33;100.00
13800;BME280;6971;50.028;9.258;2024-02-14T20:39:37;99856.06;;;7.36;100.00
13800;BME280;6971;50.028;9.258;2024-02-14T20:44:39;99855.28;;;7.34;100.00
13800;BME280;6971;50.028;9.258;2024-02-14T20:49:40;99856.06;;;7.36;100.00
13800;BME280;6971;50.028;9.258;2024-02-14T20:54:40;99859.66;;;7.34;100.00
13800;BME280;6971;50.028;9.258;2024-02-14T20:59:40;99857.91;;;7.34;100.00
13800;BME280;6971;50.028;9.258;2024-02-14T21:04:41;99859.19;;;7.48;100.00
13800;BME280;6971;50.028;9.258;2024-02-14T21:09:42;99859.59;;;7.35;100.00
13800;BME280;6971;50.028;9.258;2024-02-14T21:14:42;99857.63;;;7.42;100.00
13800;BME280;6971;50.028;9.258;2024-02-14T21:19:42;99867.22;;;7.43;100.00
13800;BME280;6971;50.028;9.258;2024-02-14T21:24:43;99870.75;;;7.42;100.00
13800;BME280;6971;50.028;9.258;2024-02-14T21:29:43;99874.00;;;7.49;100.00
13800;BME280;6971;50.028;9.258;2024-02-14T21:34:43;99861.69;;;7.52;100.00
13800;BME280;6971;50.028;9.258;2024-02-14T21:39:44;99862.69;;;7.48;100.00
13800;BME280;6971;50.028;9.258;2024-02-14T21:44:45;99868.44;;;7.58;100.00
13800;BME280;6971;50.028;9.258;2024-02-14T21:49:45;99864.13;;;7.57;100.00
13800;BME280;6971;50.028;9.258;2024-02-14T21:54:45;99865.91;;;7.56;100.00
13800;BME280;6971;50.028;9.258;2024-02-14T21:59:46;99865.81;;;7.58;100.00
13800;BME280;6971;50.028;9.258;2024-02-14T22:04:46;99865.19;;;7.51;100.00
13800;BME280;6971;50.028;9.258;2024-02-14T22:09:47;99862.19;;;7.62;100.00
13800;BME280;6971;50.028;9.258;2024-02-14T22:14:47;99865.97;;;7.55;100.00
13800;BME280;6971;50.028;9.258;2024-02-14T22:19:48;99858.88;;;7.57;100.00
13800;BME280;6971;50.028;9.258;2024-02-14T22:24:48;99862.38;;;7.57;100.00
13800;BME280;6971;50.028;9.258;2024-02-14T22:29:49;99867.75;;;7.53;100.00
13800;BME280;6971;50.028;9.258;2024-02-14T22:34:49;99869.47;;;7.54;100.00
13800;BME280;6971;50.028;9.258;2024-02-14T22:39:50;99871.91;;;7.60;100.00
13800;BME280;6971;50.028;9.258;2024-02-14T22:44:51;99871.06;;;7.58;100.00
13800;BME280;6971;50.028;9.258;2024-02-14T22:49:51;99875.16;;;7.67;100.00
13800;BME280;6971;50.028;9.258;2024-02-14T22:54:51;99874.63;;;7.57;100.00
13800;BME280;6971;50.028;9.258;2024-02-14T22:59:52;99866.75;;;7.57;100.00
13800;BME280;6971;50.028;9.258;2024-02-14T23:04:53;99857.31;;;7.51;100.00
13800;BME280;6971;50.028;9.258;2024-02-14T23:09:53;99863.94;;;7.63;100.00
13800;BME280;6971;50.028;9.258;2024-02-14T23:14:54;99866.56;;;7.63;100.00
13800;BME280;6971;50.028;9.258;2024-02-14T23:19:54;99863.16;;;7.60;100.00
13800;BME280;6971;50.028;9.258;2024-02-14T23:24:55;99868.44;;;7.58;100.00
13800;BME280;6971;50.028;9.258;2024-02-14T23:29:55;99865.59;;;7.66;100.00
13800;BME280;6971;50.028;9.258;2024-02-14T23:34:55;99860.25;;;7.67;100.00
13800;BME280;6971;50.028;9.258;2024-02-14T23:39:56;99865.41;;;7.70;100.00
13800;BME280;6971;50.028;9.258;2024-02-14T23:44:59;99866.03;;;7.77;100.00
13800;BME280;6971;50.028;9.258;2024-02-14T23:50:00;99856.63;;;7.71;100.00
13800;BME280;6971;50.028;9.258;2024-02-14T23:55:01;99860.25;;;7.67;100.00
